SBSVSBIL

Guest
Details From SBSV - Salvador Bahia Deputado Luis Eduardo M
To SBIL - Ilheus
Flight Number -
Tags generated
Created
Modified
Stats Distance 122 nm / 225 km
Max Altitude 12,200 ft / 3,719 m
Waypoints 4
Social Downloads 4
Likes 0
Share VATSIM

Download

Looking for another format? Having issues loading an existing format? Contact us
Advertisement - Login to hide

Notes

Basic altitude profile: - Ascent Rate: 2500ft/min - Ascent Speed: 250kts - Cruise Altitude: 35000ft - Cruise Speed: 420kts - Descent Rate: 1500ft/min - Descent Speed: 250kts Options: - Use NATs: yes - Use PACOTS: yes - Use low airways: yes - Use high airways: yes

Route

SBSV CORAL G677 YLH SBIL

ID Type Via Altitude Latitude Longitude Leg Dist Tot Dist Heading (true) Name
O SBSV APT - 0 ft / 0 m -12.91099˚ -38.33104˚ - 0 nm - Salvador Bahia Deputado Luis Eduardo M
CORAL FIX - 12,200 ft / 3,719 m -13.84967˚ -38.67383˚ 59 nm 59 nm 200° / 200° -
YLH NDB G677 (AWY-LO) 4,500 ft / 1,372 m -14.81217˚ -39.03667˚ 61 nm 121 nm 200° / 200° ILHEUS NDB
O SBIL APT - 0 ft / 0 m -14.81596˚ -39.03320˚ 0 nm 121 nm 139° / 139° Ilheus

Altitude Profile

Advertisement - Login to hide

SBSV

Details ICAO SBSV (SSA)
Name Salvador Bahia Deputado Luis Eduardo M
Region Brazil
Timezone America/Bahia (UTC-3.0)
Stats Elevation 64 ft / 20 m (AMSL)
Location -12.910994° -38.331043°
Runways 2
Magnetic Variation 23.437° W

METAR

SBSV 161500Z 08008KT 9999 FEW025 SCT080 28/21 Q1015

Decode

TAF

TAF SBSV 161000Z 1612/1712 09009KT 8000 SCT017 TX29/1615Z TN24/1707Z RMK PEI

Decode

Departure Runways

ID Width Length Bearing (true) Bearing (mag) Surface Threshold Offset Overrun Length
10 148 ft / 45 m 9,845 ft / 3,001 m 78.32° 101.76° Asphalt 0 ft / 0 m 205 ft / 62 m
17 148 ft / 45 m 5,014 ft / 1,528 m 144.04° 167.48° Asphalt 0 ft / 0 m 0 ft / 0 m
28 148 ft / 45 m 9,845 ft / 3,001 m 258.31° 281.75° Asphalt 0 ft / 0 m 205 ft / 62 m
35 148 ft / 45 m 5,014 ft / 1,528 m 324.04° 347.48° Asphalt 0 ft / 0 m 0 ft / 0 m

SBIL

Details ICAO SBIL (IOS)
Name Ilheus
Region Brazil
Timezone America/Bahia (UTC-3.0)
Stats Elevation 15 ft / 5 m (AMSL)
Location -14.815964° -39.033197°
Runways 1
Magnetic Variation 23.684° W

METAR

Not found

TAF

TAF SBIL 161000Z 1612/1624 06008KT 9000 SCT020 TX28/1615Z TN25/1622Z BECMG 1621/1623 29004KT RMK PEI

Decode

Destination Runways

ID Width Length Bearing (true) Bearing (mag) Surface Threshold Offset Overrun Length
11 148 ft / 45 m 5,127 ft / 1,563 m 88.35° 112.03° Asphalt 0 ft / 0 m 190 ft / 58 m
29 148 ft / 45 m 5,127 ft / 1,563 m 268.34° 292.02° Asphalt 0 ft / 0 m 160 ft / 49 m

Popular Alternatives